createdAt,value
2022-09-21T00:01:19.159Z,7.70
2022-09-21T00:03:46.697Z,7.70
2022-09-21T00:06:17.130Z,7.80
2022-09-21T00:08:45.478Z,7.80
2022-09-21T00:11:17.715Z,7.90
2022-09-21T00:13:46.708Z,7.90
2022-09-21T00:16:16.549Z,7.90
2022-09-21T00:18:43.781Z,7.80
2022-09-21T00:21:13.607Z,7.80
2022-09-21T00:23:41.269Z,7.80
2022-09-21T00:26:10.849Z,7.90
2022-09-21T00:28:38.123Z,7.80
2022-09-21T00:31:07.203Z,7.80
2022-09-21T00:33:34.821Z,7.90
2022-09-21T00:36:07.312Z,7.90
2022-09-21T00:38:35.328Z,7.90
2022-09-21T00:41:02.470Z,8.00
2022-09-21T00:43:29.478Z,8.00
2022-09-21T00:46:02.959Z,8.10
2022-09-21T00:48:30.254Z,8.10
2022-09-21T00:51:01.864Z,8.10
2022-09-21T00:53:29.002Z,8.10
2022-09-21T00:55:58.161Z,8.20
2022-09-21T00:58:33.975Z,8.30
2022-09-21T01:01:01.474Z,8.30
2022-09-21T01:03:31.373Z,8.30
2022-09-21T01:05:58.317Z,8.30
2022-09-21T01:08:27.087Z,8.40
2022-09-21T01:11:25.612Z,8.40
2022-09-21T01:13:58.391Z,8.40
2022-09-21T01:16:47.200Z,8.50
2022-09-21T01:19:31.743Z,8.50
2022-09-21T01:22:48.556Z,8.60
2022-09-21T01:25:15.378Z,8.50
2022-09-21T01:28:26.275Z,8.50
2022-09-21T01:30:54.557Z,8.50
2022-09-21T01:33:31.568Z,8.50
2022-09-21T01:36:03.241Z,8.50
2022-09-21T01:38:50.282Z,8.60
2022-09-21T01:41:21.418Z,8.60
2022-09-21T01:43:55.586Z,8.60
2022-09-21T01:46:27.181Z,8.60
2022-09-21T01:49:04.786Z,8.60
2022-09-21T01:51:33.739Z,8.60
2022-09-21T01:54:10.705Z,8.60
2022-09-21T01:56:51.887Z,8.70
2022-09-21T01:59:43.155Z,8.70
2022-09-21T02:02:15.743Z,8.70
2022-09-21T02:04:43.217Z,8.70
2022-09-21T02:07:10.293Z,8.80
2022-09-21T02:09:37.733Z,8.80
2022-09-21T02:12:05.585Z,8.80
2022-09-21T02:14:33.592Z,8.80
2022-09-21T02:17:09.006Z,8.80
2022-09-21T02:19:40.556Z,8.90
2022-09-21T02:22:33.702Z,9.00
2022-09-21T02:25:34.688Z,9.00
2022-09-21T02:28:28.942Z,9.00
2022-09-21T02:31:05.057Z,9.00
2022-09-21T02:33:44.494Z,9.00
2022-09-21T02:36:21.787Z,9.00
2022-09-21T02:38:58.363Z,9.10
2022-09-21T02:41:32.297Z,9.10
2022-09-21T02:44:25.901Z,9.10
2022-09-21T02:46:59.224Z,9.10
2022-09-21T02:49:39.156Z,9.10
2022-09-21T02:52:12.620Z,9.20
2022-09-21T02:54:41.968Z,9.20
2022-09-21T02:57:10.354Z,9.20
2022-09-21T02:59:37.291Z,9.20
2022-09-21T03:02:05.541Z,9.30
2022-09-21T03:04:33.871Z,9.30
2022-09-21T03:07:03.888Z,9.30
2022-09-21T03:09:30.738Z,9.30
2022-09-21T03:11:58.077Z,9.30
2022-09-21T03:14:24.950Z,9.30
2022-09-21T03:16:51.922Z,9.40
2022-09-21T03:19:18.964Z,9.40
2022-09-21T03:21:45.926Z,9.40
2022-09-21T03:24:12.771Z,9.40
2022-09-21T03:26:39.856Z,9.40
2022-09-21T03:29:06.871Z,9.40
2022-09-21T03:31:34.622Z,9.40
2022-09-21T03:34:01.730Z,9.40
2022-09-21T03:36:28.610Z,9.40
2022-09-21T03:38:55.532Z,9.50
2022-09-21T03:41:22.624Z,9.50
2022-09-21T03:43:49.522Z,9.50
2022-09-21T03:46:17.270Z,9.50
2022-09-21T03:48:47.539Z,9.50
2022-09-21T03:51:14.571Z,9.50
2022-09-21T03:53:41.530Z,9.50
2022-09-21T03:56:08.591Z,9.50
2022-09-21T03:58:35.452Z,9.50
2022-09-21T04:01:03.586Z,9.50
2022-09-21T04:03:31.531Z,9.50
2022-09-21T04:05:58.394Z,9.50
2022-09-21T04:08:25.278Z,9.50
2022-09-21T04:10:52.585Z,9.40
2022-09-21T04:13:19.437Z,9.40
2022-09-21T04:15:46.348Z,9.40
2022-09-21T04:18:13.644Z,9.40
2022-09-21T04:20:41.568Z,9.40
2022-09-21T04:23:09.964Z,9.40
2022-09-21T04:25:37.267Z,9.40
2022-09-21T04:28:04.208Z,9.40
2022-09-21T04:30:35.527Z,9.40
2022-09-21T04:33:04.590Z,9.40
2022-09-21T04:35:31.625Z,9.50
2022-09-21T04:37:58.462Z,9.50
2022-09-21T04:40:25.869Z,9.50
2022-09-21T04:42:53.554Z,9.50
2022-09-21T04:45:21.687Z,9.50
2022-09-21T04:47:48.950Z,9.50
2022-09-21T04:50:16.399Z,9.50
2022-09-21T04:52:43.292Z,9.50
2022-09-21T04:55:10.367Z,9.50
2022-09-21T04:57:37.234Z,9.50
2022-09-21T05:00:05.737Z,9.50
2022-09-21T05:02:32.874Z,9.50
2022-09-21T05:04:59.704Z,9.60
2022-09-21T05:07:26.597Z,9.60
2022-09-21T05:10:02.719Z,9.70
2022-09-21T05:12:34.222Z,9.80
2022-09-21T05:15:01.964Z,9.80
2022-09-21T05:17:29.357Z,9.80
2022-09-21T05:19:56.193Z,9.90
2022-09-21T05:22:23.303Z,9.90
2022-09-21T05:24:50.151Z,9.90
2022-09-21T05:27:16.999Z,10.00
2022-09-21T05:29:44.467Z,10.00
2022-09-21T05:32:29.188Z,10.10
2022-09-21T05:35:06.852Z,10.10
2022-09-21T05:37:48.356Z,10.20
2022-09-21T05:40:15.930Z,10.20
2022-09-21T05:42:43.621Z,10.20
2022-09-21T05:45:16.608Z,10.30
2022-09-21T05:47:54.170Z,10.40
2022-09-21T05:50:36.904Z,10.50
2022-09-21T05:53:22.566Z,10.60
2022-09-21T05:55:58.144Z,10.70
2022-09-21T05:59:00.220Z,10.80
2022-09-21T06:01:48.522Z,10.80
2022-09-21T06:04:16.490Z,10.80
2022-09-21T06:06:43.363Z,10.80
2022-09-21T06:09:10.377Z,10.70
2022-09-21T06:11:37.500Z,10.70
2022-09-21T06:14:04.704Z,10.80
2022-09-21T06:16:42.682Z,10.90
2022-09-21T06:19:13.489Z,10.00
2022-09-21T06:21:40.648Z,11.00
2022-09-21T06:24:07.828Z,11.10
2022-09-21T06:26:35.468Z,11.10
2022-09-21T06:29:02.327Z,11.10
2022-09-21T06:31:29.280Z,11.20
2022-09-21T06:33:56.748Z,11.20
2022-09-21T06:36:23.698Z,11.30
2022-09-21T06:38:50.597Z,11.40
2022-09-21T06:41:21.209Z,11.60
2022-09-21T06:43:48.607Z,11.80
2022-09-21T06:46:15.521Z,12.00
2022-09-21T06:48:42.658Z,12.20
2022-09-21T06:51:10.212Z,12.30
2022-09-21T06:53:37.212Z,12.40
2022-09-21T06:56:08.730Z,12.40
2022-09-21T06:58:37.846Z,12.20
2022-09-21T07:01:10.351Z,12.20
2022-09-21T07:03:38.317Z,12.10
2022-09-21T07:06:06.418Z,12.10
2022-09-21T07:11:22.038Z,12.00
2022-09-21T07:13:49.393Z,11.90
2022-09-21T07:16:16.807Z,11.90
2022-09-21T07:18:44.248Z,12.10
2022-09-21T07:21:12.168Z,12.80
2022-09-21T07:23:39.142Z,15.30
2022-09-21T07:26:12.375Z,17.40
2022-09-21T07:28:39.732Z,18.10
2022-09-21T07:31:12.290Z,20.10
2022-09-21T07:33:39.202Z,22.20
2022-09-21T07:36:10.446Z,23.60
2022-09-21T07:38:41.900Z,24.80
2022-09-21T07:41:11.677Z,25.70
2022-09-21T07:43:41.515Z,26.70
2022-09-21T07:46:10.930Z,27.70
2022-09-21T07:48:39.194Z,27.70
2022-09-21T07:51:08.568Z,27.50
2022-09-21T07:53:37.800Z,27.80
2022-09-21T07:56:10.683Z,27.50
2022-09-21T07:58:57.124Z,28.10
2022-09-21T08:01:25.827Z,28.20
2022-09-21T08:03:54.384Z,27.40
2022-09-21T08:06:22.103Z,27.30
2022-09-21T08:08:55.102Z,27.20
2022-09-21T08:11:26.011Z,27.20
2022-09-21T08:13:54.941Z,28.00
2022-09-21T08:16:22.639Z,29.20
2022-09-21T08:18:51.203Z,29.60
2022-09-21T08:21:18.712Z,28.00
2022-09-21T08:23:46.050Z,27.30
2022-09-21T08:26:19.158Z,27.40
2022-09-21T08:28:51.568Z,26.80
2022-09-21T08:31:24.402Z,27.30
2022-09-21T08:33:52.083Z,27.60
2022-09-21T08:36:19.810Z,27.90
2022-09-21T08:38:48.137Z,29.10
2022-09-21T08:41:20.187Z,29.30
2022-09-21T08:43:53.503Z,28.80
2022-09-21T08:46:24.692Z,28.30
2022-09-21T08:49:01.740Z,27.70
2022-09-21T08:51:31.981Z,25.40
2022-09-21T08:54:12.420Z,23.50
2022-09-21T08:57:03.377Z,24.60
2022-09-21T08:59:26.347Z,26.40
2022-09-21T09:02:36.361Z,24.80
2022-09-21T09:05:06.550Z,22.40
2022-09-21T09:08:03.274Z,22.00
2022-09-21T09:10:33.230Z,20.90
2022-09-21T09:13:06.356Z,21.10
2022-09-21T09:16:07.317Z,23.00
2022-09-21T09:18:52.170Z,25.40
2022-09-21T09:21:43.075Z,27.50
2022-09-21T09:24:12.726Z,28.80
2022-09-21T09:26:47.683Z,27.80
2022-09-21T09:29:53.793Z,27.40
2022-09-21T09:32:23.802Z,26.90
2022-09-21T09:34:57.726Z,25.60
2022-09-21T09:37:30.813Z,23.30
2022-09-21T09:40:01.298Z,21.10
2022-09-21T09:43:04.984Z,19.40
2022-09-21T09:45:58.193Z,17.80
2022-09-21T09:48:40.192Z,16.40
2022-09-21T09:51:11.786Z,15.50
2022-09-21T09:53:39.117Z,15.20
2022-09-21T09:56:06.283Z,15.50
2022-09-21T09:58:56.499Z,15.90
2022-09-21T10:01:39.066Z,16.30
2022-09-21T10:04:11.059Z,16.30
2022-09-21T10:06:42.458Z,16.20
2022-09-21T10:09:26.313Z,16.00
2022-09-21T10:11:56.754Z,16.10
2022-09-21T10:14:25.623Z,16.20
2022-09-21T10:16:53.675Z,16.40
2022-09-21T10:19:26.262Z,16.50
2022-09-21T10:21:59.184Z,16.50
2022-09-21T10:24:38.266Z,16.70
2022-09-21T10:27:16.724Z,16.50
2022-09-21T10:29:46.238Z,16.30
2022-09-21T10:32:14.814Z,16.40
2022-09-21T10:35:07.674Z,16.50
2022-09-21T10:37:38.728Z,16.70
2022-09-21T10:40:23.495Z,16.90
2022-09-21T10:42:53.781Z,17.20
2022-09-21T10:45:32.355Z,17.50
2022-09-21T10:48:05.873Z,17.70
2022-09-21T10:50:40.227Z,17.70
2022-09-21T10:53:10.312Z,17.70
2022-09-21T10:56:17.733Z,17.80
2022-09-21T10:59:19.698Z,17.70
2022-09-21T11:01:49.019Z,17.60
2022-09-21T11:04:20.253Z,17.90
2022-09-21T11:06:52.305Z,17.90
2022-09-21T11:09:29.724Z,17.30
2022-09-21T11:12:10.918Z,16.00
2022-09-21T11:14:59.063Z,15.00
2022-09-21T11:17:37.013Z,14.00
2022-09-21T11:20:14.311Z,12.90
2022-09-21T11:23:12.250Z,12.70
2022-09-21T11:26:00.763Z,12.40
2022-09-21T11:28:42.160Z,12.20
2022-09-21T11:31:15.327Z,12.10
2022-09-21T11:34:03.450Z,12.10
2022-09-21T11:36:49.436Z,12.10
2022-09-21T11:39:31.209Z,12.10
2022-09-21T11:42:17.528Z,12.20
2022-09-21T11:44:55.885Z,12.40
2022-09-21T11:47:44.267Z,12.50
2022-09-21T11:50:31.614Z,12.70
2022-09-21T11:53:40.444Z,12.60
2022-09-21T11:56:15.488Z,12.60
2022-09-21T11:58:42.770Z,12.70
2022-09-21T12:01:44.184Z,12.90
2022-09-21T12:04:42.866Z,13.40
2022-09-21T12:07:34.241Z,13.50
2022-09-21T12:10:10.931Z,13.50
2022-09-21T12:12:50.349Z,13.60
2022-09-21T12:15:24.098Z,14.10
2022-09-21T12:18:05.519Z,14.50
2022-09-21T12:20:51.015Z,14.80
2022-09-21T12:23:27.929Z,14.90
2022-09-21T12:25:58.597Z,14.90
2022-09-21T12:28:32.498Z,14.70
2022-09-21T12:31:05.176Z,14.60
2022-09-21T12:33:47.520Z,14.40
2022-09-21T12:36:20.979Z,14.30
2022-09-21T12:38:59.392Z,14.20
2022-09-21T12:41:42.126Z,14.10
2022-09-21T12:44:52.219Z,14.10
2022-09-21T12:47:41.221Z,14.10
2022-09-21T12:50:25.396Z,14.20
2022-09-21T12:52:53.578Z,14.20
2022-09-21T12:55:38.894Z,14.20
2022-09-21T12:58:15.938Z,14.30
2022-09-21T13:00:56.468Z,14.40
2022-09-21T13:03:40.428Z,14.40
2022-09-21T13:06:29.364Z,14.50
2022-09-21T13:09:00.129Z,14.60
2022-09-21T13:11:27.178Z,14.60
2022-09-21T13:14:01.353Z,14.70
2022-09-21T13:16:35.533Z,14.80
2022-09-21T13:19:22.004Z,14.80
2022-09-21T13:22:25.298Z,14.90
2022-09-21T13:25:04.562Z,15.10
2022-09-21T13:27:59.272Z,15.10
2022-09-21T13:30:32.631Z,14.90
2022-09-21T13:33:01.396Z,14.70
2022-09-21T13:35:53.195Z,14.50
2022-09-21T13:38:37.498Z,14.40
2022-09-21T13:41:19.442Z,14.30
2022-09-21T13:43:58.480Z,14.30
2022-09-21T13:46:37.001Z,14.30
2022-09-21T13:49:10.593Z,14.30
2022-09-21T13:51:54.140Z,14.30
2022-09-21T13:54:25.539Z,14.20
2022-09-21T13:57:28.226Z,14.20
2022-09-21T14:00:41.855Z,14.30
2022-09-21T14:03:46.251Z,14.30
2022-09-21T14:06:28.179Z,14.40
2022-09-21T14:09:02.387Z,14.50
2022-09-21T14:11:40.252Z,14.70
2022-09-21T14:14:18.276Z,15.00
2022-09-21T14:16:59.006Z,15.20
2022-09-21T14:19:32.997Z,15.40
2022-09-21T14:22:09.487Z,15.60
2022-09-21T14:24:50.010Z,15.50
2022-09-21T14:27:36.442Z,15.40
2022-09-21T14:30:21.782Z,15.30
2022-09-21T14:32:59.173Z,15.10
2022-09-21T14:35:33.574Z,15.00
2022-09-21T14:38:05.384Z,14.90
2022-09-21T14:40:39.339Z,14.90
2022-09-21T14:43:12.487Z,14.80
2022-09-21T14:46:12.458Z,14.80
2022-09-21T14:49:18.736Z,14.70
2022-09-21T14:52:20.243Z,14.80
2022-09-21T14:55:15.815Z,14.70
2022-09-21T14:58:01.376Z,14.70
2022-09-21T15:00:43.386Z,14.70
2022-09-21T15:03:25.544Z,14.70
2022-09-21T15:06:21.981Z,14.70
2022-09-21T15:09:17.971Z,14.60
2022-09-21T15:11:52.990Z,14.60
2022-09-21T15:14:33.387Z,14.40
2022-09-21T15:17:01.261Z,14.20
2022-09-21T15:19:29.691Z,13.90
2022-09-21T15:22:17.689Z,13.60
2022-09-21T15:24:50.579Z,13.40
2022-09-21T15:27:19.923Z,13.20
2022-09-21T15:29:50.038Z,13.10
2022-09-21T15:32:44.593Z,13.00
2022-09-21T15:35:22.118Z,13.00
2022-09-21T15:37:50.981Z,13.10
2022-09-21T15:40:23.132Z,13.00
2022-09-21T15:43:02.124Z,13.10
2022-09-21T15:45:54.727Z,13.00
2022-09-21T15:48:23.487Z,13.10
2022-09-21T15:50:58.188Z,13.10
2022-09-21T15:53:31.953Z,13.10
2022-09-21T15:56:02.433Z,13.10
2022-09-21T15:58:38.224Z,13.00
2022-09-21T16:01:12.514Z,13.00
2022-09-21T16:03:40.203Z,12.90
2022-09-21T16:06:26.794Z,12.90
2022-09-21T16:08:54.246Z,12.80
2022-09-21T16:11:37.689Z,12.70
2022-09-21T16:14:33.198Z,12.70
2022-09-21T16:17:12.626Z,12.70
2022-09-21T16:19:59.086Z,12.80
2022-09-21T16:22:42.752Z,12.90
2022-09-21T16:25:34.581Z,13.00
2022-09-21T16:28:25.921Z,13.20
2022-09-21T16:30:55.118Z,13.30
2022-09-21T16:33:39.875Z,13.40
2022-09-21T16:36:34.057Z,13.50
2022-09-21T16:39:06.314Z,13.50
2022-09-21T16:41:36.985Z,13.30
2022-09-21T16:44:04.600Z,13.10
2022-09-21T16:46:35.445Z,13.00
2022-09-21T16:49:02.330Z,12.80
2022-09-21T16:51:29.690Z,12.70
2022-09-21T16:53:56.725Z,12.60
2022-09-21T16:56:23.652Z,12.50
2022-09-21T16:58:50.734Z,12.30
2022-09-21T17:01:22.194Z,12.20
2022-09-21T17:03:49.159Z,12.10
2022-09-21T17:06:21.708Z,12.10
2022-09-21T17:08:49.579Z,12.00
2022-09-21T17:11:21.861Z,11.90
2022-09-21T17:13:53.374Z,11.90
2022-09-21T17:16:20.547Z,11.90
2022-09-21T17:18:48.889Z,11.80
2022-09-21T17:21:17.041Z,11.70
2022-09-21T17:23:44.613Z,11.50
2022-09-21T17:26:17.744Z,11.40
2022-09-21T17:28:45.739Z,11.20
2022-09-21T17:31:14.159Z,11.10
2022-09-21T17:33:41.480Z,11.00
2022-09-21T17:36:16.001Z,10.90
2022-09-21T17:38:44.301Z,10.70
2022-09-21T17:41:35.029Z,10.60
2022-09-21T17:44:16.936Z,10.60
2022-09-21T17:47:16.188Z,10.60
2022-09-21T17:49:43.249Z,10.60
2022-09-21T17:52:34.734Z,10.50
2022-09-21T17:55:05.891Z,10.50
2022-09-21T17:58:14.452Z,10.50
2022-09-21T18:00:45.592Z,10.50
2022-09-21T18:03:24.835Z,10.60
2022-09-21T18:06:00.482Z,10.60
2022-09-21T18:08:33.896Z,10.50
2022-09-21T18:11:06.836Z,10.50
2022-09-21T18:13:47.145Z,10.50
2022-09-21T18:16:29.045Z,10.50
2022-09-21T18:19:29.181Z,10.40
2022-09-21T18:22:31.659Z,10.40
2022-09-21T18:24:59.826Z,10.30
2022-09-21T18:27:26.928Z,10.20
2022-09-21T18:29:54.101Z,10.10
2022-09-21T18:32:49.395Z,10.00
2022-09-21T18:36:00.625Z,10.00
2022-09-21T18:38:47.469Z,10.00
2022-09-21T18:41:35.106Z,10.00
2022-09-21T18:44:04.266Z,10.00
2022-09-21T18:46:34.208Z,9.90
2022-09-21T18:49:16.772Z,9.80
2022-09-21T18:51:54.006Z,9.80
2022-09-21T18:54:23.082Z,9.70
2022-09-21T18:56:50.452Z,9.70
2022-09-21T18:59:17.870Z,9.60
2022-09-21T19:01:47.061Z,9.60
2022-09-21T19:04:17.070Z,9.40
2022-09-21T19:06:46.920Z,9.40
2022-09-21T19:09:40.588Z,9.40
2022-09-21T19:12:22.809Z,9.30
2022-09-21T19:15:12.190Z,9.30
2022-09-21T19:18:04.414Z,9.30
2022-09-21T19:20:49.801Z,9.20
2022-09-21T19:23:59.540Z,9.10
2022-09-21T19:26:46.651Z,9.10
2022-09-21T19:29:26.177Z,9.10
2022-09-21T19:31:53.134Z,9.00
2022-09-21T19:34:20.548Z,7.60
2022-09-21T19:36:48.716Z,9.00
2022-09-21T19:39:16.077Z,9.00
2022-09-21T19:42:17.820Z,9.00
2022-09-21T19:44:55.320Z,9.00
2022-09-21T19:47:37.362Z,8.90
2022-09-21T19:50:28.401Z,8.90
2022-09-21T19:53:15.968Z,8.80
2022-09-21T19:56:02.744Z,8.80
2022-09-21T19:58:48.773Z,8.80
2022-09-21T20:01:19.929Z,8.80
2022-09-21T20:03:48.685Z,8.80
2022-09-21T20:06:35.870Z,8.80
2022-09-21T20:09:19.071Z,8.80
2022-09-21T20:12:02.461Z,8.80
2022-09-21T20:14:35.410Z,8.80
2022-09-21T20:17:08.714Z,8.90
2022-09-21T20:20:08.054Z,8.90
2022-09-21T20:22:37.215Z,9.00
2022-09-21T20:25:12.841Z,8.90
2022-09-21T20:27:48.397Z,9.00
2022-09-21T20:30:17.755Z,9.00
2022-09-21T20:32:49.969Z,8.90
2022-09-21T20:35:19.060Z,8.90
2022-09-21T20:37:46.454Z,8.90
2022-09-21T20:40:14.550Z,8.80
2022-09-21T20:42:42.888Z,8.80
2022-09-21T20:45:12.276Z,8.80
2022-09-21T20:47:39.703Z,8.70
2022-09-21T20:50:12.773Z,8.60
2022-09-21T20:52:41.529Z,8.60
2022-09-21T20:55:13.459Z,8.60
2022-09-21T20:57:40.576Z,8.60
2022-09-21T21:00:10.642Z,8.60
2022-09-21T21:02:37.747Z,8.50
2022-09-21T21:05:05.738Z,8.50
2022-09-21T21:07:32.611Z,8.50
2022-09-21T21:10:00.663Z,8.50
2022-09-21T21:12:27.842Z,8.40
2022-09-21T21:14:54.708Z,8.40
2022-09-21T21:17:21.843Z,8.30
2022-09-21T21:19:48.768Z,8.30
2022-09-21T21:22:15.725Z,8.20
2022-09-21T21:24:43.665Z,8.20
2022-09-21T21:27:19.442Z,8.20
2022-09-21T21:29:50.081Z,8.10
2022-09-21T21:32:18.556Z,8.10
2022-09-21T21:34:45.682Z,8.20
2022-09-21T21:37:14.270Z,8.10
2022-09-21T21:39:41.124Z,8.10
2022-09-21T21:42:08.555Z,8.00
2022-09-21T21:44:35.696Z,8.00
2022-09-21T21:47:20.922Z,8.00
2022-09-21T21:49:49.698Z,7.90
2022-09-21T21:52:16.669Z,7.90
2022-09-21T21:54:43.551Z,7.80
2022-09-21T21:57:13.738Z,7.80
2022-09-21T21:59:40.676Z,7.80
2022-09-21T22:02:07.663Z,7.70
2022-09-21T22:04:34.901Z,7.70
2022-09-21T22:07:02.152Z,7.70
2022-09-21T22:09:29.017Z,7.60
2022-09-21T22:11:56.478Z,7.60
2022-09-21T22:14:23.320Z,7.60
2022-09-21T22:16:51.373Z,7.60
2022-09-21T22:19:18.643Z,7.60
2022-09-21T22:21:51.712Z,7.60
2022-09-21T22:24:21.284Z,7.60
2022-09-21T22:26:48.750Z,7.50
2022-09-21T22:29:17.346Z,7.50
2022-09-21T22:31:48.329Z,7.50
2022-09-21T22:34:16.073Z,7.50
2022-09-21T22:36:45.951Z,7.50
2022-09-21T22:39:13.357Z,7.50
2022-09-21T22:41:42.127Z,7.50
2022-09-21T22:44:10.508Z,7.40
2022-09-21T22:46:38.357Z,7.40
2022-09-21T22:49:05.991Z,7.40
2022-09-21T22:51:34.980Z,7.40
2022-09-21T22:54:02.334Z,7.30
2022-09-21T22:56:31.596Z,7.30
2022-09-21T22:59:00.425Z,7.30
2022-09-21T23:01:34.667Z,7.30
2022-09-21T23:04:12.845Z,7.20
2022-09-21T23:06:42.821Z,7.20
2022-09-21T23:09:15.210Z,7.20
2022-09-21T23:11:47.145Z,7.10
2022-09-21T23:14:15.444Z,7.10
2022-09-21T23:16:43.218Z,7.10
2022-09-21T23:19:15.689Z,7.10
2022-09-21T23:21:51.234Z,7.10
2022-09-21T23:24:19.282Z,7.10
2022-09-21T23:26:46.919Z,7.10
2022-09-21T23:29:15.609Z,7.10
2022-09-21T23:31:45.474Z,7.00
2022-09-21T23:34:13.377Z,7.00
2022-09-21T23:36:42.083Z,7.00
2022-09-21T23:39:11.831Z,7.00
2022-09-21T23:41:38.688Z,7.00
2022-09-21T23:44:05.961Z,6.90
2022-09-21T23:46:35.915Z,6.90
2022-09-21T23:49:03.585Z,6.90
2022-09-21T23:51:30.667Z,6.90
2022-09-21T23:53:58.643Z,6.90
2022-09-21T23:56:25.962Z,6.90
2022-09-21T23:58:53.097Z,6.80
